PWSweather.com
Personal Weather Stations
Station Observations
948974
Valtournenche, AostaIT 11028

ValtournencheAostaIT 11028

Lat: 45.877222, Lon: 7.625556

Elevation: 5085.3018

Station Type: PCE-FWS 20

http://www.cdso.it

High Low Average
Temperature 44.4°F6.9°C 26.6°F-3.0°C 34.7°F1.5°C
Dew Point 29.9°F-1.2°C -2.7°F-19.3°C 4.4°F-15.3°C
Winds 8.0 mph 12.9 kmh Calm Calm 2.0 mph SW3.2 kmh SW
Wind Gusts 14.0 mph22.5 kmh -- 4.0 mph6.4 kmh
Humidity 92% 21% 29%
Pressure 30.24 in1024.0 mb 29.92 in1013.2 mb -
Precipitation 0.00 in0.0 mm - -
Hour Temp Dew Point Humidity Winds Wind Gusts Pressure Precip Precip Rate Daily Precip Total
12:18 AM 32.0°F0.0°C 29.9°F-1.2°C 92% Calm Calm -- 29.96 in1014.6 mb 0.00 in0.0 mm 0.00 in0.0 mm 0.00 in0.0 mm
12:39 AM 32.2°F0.1°C 27.3°F-2.6°C 82% Calm Calm -- 29.97 in1014.9 mb 0.00 in0.0 mm 0.00 in0.0 mm 0.00 in0.0 mm
01:00 AM 31.8°F-0.1°C 24.2°F-4.3°C 73% Calm Calm -- 29.97 in1014.9 mb 0.00 in0.0 mm 0.00 in0.0 mm 0.00 in0.0 mm
01:21 AM 31.6°F-0.2°C 17.3°F-8.2°C 55% Calm Calm -- 29.98 in1015.2 mb 0.00 in0.0 mm 0.00 in0.0 mm 0.00 in0.0 mm
01:42 AM 32.4°F0.2°C 8.4°F-13.1°C 36% Calm Calm -- 29.97 in1014.9 mb 0.00 in0.0 mm 0.00 in0.0 mm 0.00 in0.0 mm
02:03 AM 30.7°F-0.7°C 10.9°F-11.7°C 43% Calm Calm -- 29.98 in1015.2 mb 0.00 in0.0 mm 0.00 in0.0 mm 0.00 in0.0 mm
02:24 AM 30.6°F-0.8°C 6.2°F-14.3°C 35% Calm Calm -- 29.98 in1015.2 mb 0.00 in0.0 mm 0.00 in0.0 mm 0.00 in0.0 mm
02:45 AM 31.8°F-0.1°C 1.7°F-16.8°C 27% Calm Calm -- 29.97 in1014.9 mb 0.00 in0.0 mm 0.00 in0.0 mm 0.00 in0.0 mm
03:06 AM 30.4°F-0.9°C 2.0°F-16.7°C 29% Calm Calm -- 29.98 in1015.2 mb 0.00 in0.0 mm 0.00 in0.0 mm 0.00 in0.0 mm
03:27 AM 30.0°F-1.1°C 3.8°F-15.7°C 32% Calm Calm -- 29.97 in1014.9 mb 0.00 in0.0 mm 0.00 in0.0 mm 0.00 in0.0 mm
03:48 AM 29.3°F-1.5°C 3.8°F-15.7°C 33% Calm Calm -- 29.97 in1014.9 mb 0.00 in0.0 mm 0.00 in0.0 mm 0.00 in0.0 mm
04:09 AM 30.0°F-1.1°C 2.4°F-16.4°C 30% Calm Calm -- 29.96 in1014.6 mb 0.00 in0.0 mm 0.00 in0.0 mm 0.00 in0.0 mm
04:30 AM 30.6°F-0.8°C 2.1°F-16.6°C 29% Calm Calm -- 29.95 in1014.2 mb 0.00 in0.0 mm 0.00 in0.0 mm 0.00 in0.0 mm
04:51 AM 30.4°F-0.9°C 2.7°F-16.3°C 30% Calm Calm -- 29.95 in1014.2 mb 0.00 in0.0 mm 0.00 in0.0 mm 0.00 in0.0 mm
05:12 AM 30.2°F-1.0°C 5.2°F-14.9°C 34% Calm Calm -- 29.98 in1015.2 mb 0.00 in0.0 mm 0.00 in0.0 mm 0.00 in0.0 mm
05:33 AM 31.1°F-0.5°C 4.7°F-15.2°C 32% Calm Calm -- 29.97 in1014.9 mb 0.00 in0.0 mm 0.00 in0.0 mm 0.00 in0.0 mm
05:54 AM 30.6°F-0.8°C 3.6°F-15.8°C 31% Calm Calm -- 29.97 in1014.9 mb 0.00 in0.0 mm 0.00 in0.0 mm 0.00 in0.0 mm
06:15 AM 30.4°F-0.9°C 5.4°F-14.8°C 34% Calm Calm -- 29.97 in1014.9 mb 0.00 in0.0 mm 0.00 in0.0 mm 0.00 in0.0 mm
06:36 AM 30.7°F-0.7°C 5.7°F-14.6°C 34% Calm Calm -- 29.98 in1015.2 mb 0.00 in0.0 mm 0.00 in0.0 mm 0.00 in0.0 mm
06:57 AM 30.4°F-0.9°C 5.4°F-14.8°C 34% Calm Calm -- 29.98 in1015.2 mb 0.00 in0.0 mm 0.00 in0.0 mm 0.00 in0.0 mm
07:18 AM 31.8°F-0.1°C 1.7°F-16.8°C 27% Calm Calm -- 29.98 in1015.2 mb 0.00 in0.0 mm 0.00 in0.0 mm 0.00 in0.0 mm
07:39 AM 32.0°F0.0°C 1.0°F-17.2°C 26% Calm Calm -- 29.98 in1015.2 mb 0.00 in0.0 mm 0.00 in0.0 mm 0.00 in0.0 mm
08:00 AM 32.5°F0.3°C -0.2°F-17.9°C 24% Calm Calm -- 29.98 in1015.2 mb 0.00 in0.0 mm 0.00 in0.0 mm 0.00 in0.0 mm
08:21 AM 32.2°F0.1°C -0.5°F-18.1°C 24% Calm Calm -- 30.00 in1015.9 mb 0.00 in0.0 mm 0.00 in0.0 mm 0.00 in0.0 mm
08:42 AM 32.5°F0.3°C -1.1°F-18.4°C 23% Calm Calm -- 30.00 in1015.9 mb 0.00 in0.0 mm 0.00 in0.0 mm 0.00 in0.0 mm
09:03 AM 37.6°F3.1°C 5.8°F-14.6°C 26% 4.0 mph S6.4 kmh S 5.0 mph8.0 kmh 29.95 in1014.2 mb 0.00 in0.0 mm 0.00 in0.0 mm 0.00 in0.0 mm
09:24 AM 39.0°F3.9°C 6.2°F-14.3°C 25% 2.0 mph NW3.2 kmh NW 3.0 mph4.8 kmh 29.94 in1013.9 mb 0.00 in0.0 mm 0.00 in0.0 mm 0.00 in0.0 mm
09:45 AM 39.7°F4.3°C 5.9°F-14.5°C 24% 3.0 mph NW4.8 kmh NW 5.0 mph8.0 kmh 29.94 in1013.9 mb 0.00 in0.0 mm 0.00 in0.0 mm 0.00 in0.0 mm
10:06 AM 37.4°F3.0°C 4.8°F-15.1°C 25% 3.0 mph NW4.8 kmh NW 4.0 mph6.4 kmh 29.96 in1014.6 mb 0.00 in0.0 mm 0.00 in0.0 mm 0.00 in0.0 mm
10:27 AM 37.4°F3.0°C 4.8°F-15.1°C 25% 7.0 mph S11.3 kmh S 13.0 mph20.9 kmh 29.97 in1014.9 mb 0.00 in0.0 mm 0.00 in0.0 mm 0.00 in0.0 mm
10:48 AM 39.9°F4.4°C 5.2°F-14.9°C 23% 4.0 mph NW6.4 kmh NW 7.0 mph11.3 kmh 29.95 in1014.2 mb 0.00 in0.0 mm 0.00 in0.0 mm 0.00 in0.0 mm
11:09 AM 40.1°F4.5°C 5.3°F-14.8°C 23% 4.0 mph SW6.4 kmh SW 6.0 mph9.7 kmh 29.96 in1014.6 mb 0.00 in0.0 mm 0.00 in0.0 mm 0.00 in0.0 mm
11:30 AM 40.1°F4.5°C 5.3°F-14.8°C 23% 4.0 mph NE6.4 kmh NE 7.0 mph11.3 kmh 29.96 in1014.6 mb 0.00 in0.0 mm 0.00 in0.0 mm 0.00 in0.0 mm
11:51 AM 41.2°F5.1°C 5.3°F-14.8°C 22% 4.0 mph NE6.4 kmh NE 8.0 mph12.9 kmh 29.95 in1014.2 mb 0.00 in0.0 mm 0.00 in0.0 mm 0.00 in0.0 mm
12:12 PM 41.7°F5.4°C 5.7°F-14.6°C 22% 8.0 mph W12.9 kmh W 9.0 mph14.5 kmh 29.95 in1014.2 mb 0.00 in0.0 mm 0.00 in0.0 mm 0.00 in0.0 mm
12:33 PM 41.5°F5.3°C 5.6°F-14.7°C 22% 6.0 mph NE9.7 kmh NE 9.0 mph14.5 kmh 29.96 in1014.6 mb 0.00 in0.0 mm 0.00 in0.0 mm 0.00 in0.0 mm
12:54 PM 41.2°F5.1°C 5.3°F-14.8°C 22% 3.0 mph NW4.8 kmh NW 5.0 mph8.0 kmh 29.96 in1014.6 mb 0.00 in0.0 mm 0.00 in0.0 mm 0.00 in0.0 mm
01:15 PM 42.4°F5.8°C 6.3°F-14.3°C 22% 4.0 mph NW6.4 kmh NW 7.0 mph11.3 kmh 29.95 in1014.2 mb 0.00 in0.0 mm 0.00 in0.0 mm 0.00 in0.0 mm
01:36 PM 42.1°F5.6°C 6.0°F-14.4°C 22% 6.0 mph NW9.7 kmh NW 9.0 mph14.5 kmh 29.94 in1013.9 mb 0.00 in0.0 mm 0.00 in0.0 mm 0.00 in0.0 mm
01:57 PM 42.3°F5.7°C 6.2°F-14.3°C 22% 4.0 mph NW6.4 kmh NW 6.0 mph9.7 kmh 29.94 in1013.9 mb 0.00 in0.0 mm 0.00 in0.0 mm 0.00 in0.0 mm
02:18 PM 39.9°F4.4°C 5.2°F-14.9°C 23% 4.0 mph NW6.4 kmh NW 8.0 mph12.9 kmh 29.97 in1014.9 mb 0.00 in0.0 mm 0.00 in0.0 mm 0.00 in0.0 mm
02:39 PM 41.4°F5.2°C 5.4°F-14.8°C 22% 6.0 mph NW9.7 kmh NW 9.0 mph14.5 kmh 29.95 in1014.2 mb 0.00 in0.0 mm 0.00 in0.0 mm 0.00 in0.0 mm
03:00 PM 43.0°F6.1°C 5.8°F-14.6°C 21% 2.0 mph NW3.2 kmh NW 4.0 mph6.4 kmh 29.93 in1013.5 mb 0.00 in0.0 mm 0.00 in0.0 mm 0.00 in0.0 mm
03:21 PM 44.1°F6.7°C 6.7°F-14.1°C 21% 4.0 mph W6.4 kmh W 7.0 mph11.3 kmh 29.92 in1013.2 mb 0.00 in0.0 mm 0.00 in0.0 mm 0.00 in0.0 mm
03:42 PM 44.4°F6.9°C 7.0°F-13.9°C 21% 5.0 mph W8.0 kmh W 10.0 mph16.1 kmh 29.93 in1013.5 mb 0.00 in0.0 mm 0.00 in0.0 mm 0.00 in0.0 mm
04:03 PM 44.1°F6.7°C 6.7°F-14.1°C 21% 4.0 mph W6.4 kmh W 5.0 mph8.0 kmh 29.94 in1013.9 mb 0.00 in0.0 mm 0.00 in0.0 mm 0.00 in0.0 mm
04:24 PM 40.8°F4.9°C 5.9°F-14.5°C 23% 2.0 mph NW3.2 kmh NW 4.0 mph6.4 kmh 29.98 in1015.2 mb 0.00 in0.0 mm 0.00 in0.0 mm 0.00 in0.0 mm
04:45 PM 40.5°F4.7°C 6.5°F-14.2°C 24% 3.0 mph E4.8 kmh E 4.0 mph6.4 kmh 29.99 in1015.6 mb 0.00 in0.0 mm 0.00 in0.0 mm 0.00 in0.0 mm
05:06 PM 40.1°F4.5°C 6.2°F-14.3°C 24% 3.0 mph SW4.8 kmh SW 5.0 mph8.0 kmh 29.99 in1015.6 mb 0.00 in0.0 mm 0.00 in0.0 mm 0.00 in0.0 mm
05:27 PM 36.9°F2.7°C 0.6°F-17.4°C 21% 2.0 mph SW3.2 kmh SW 2.0 mph3.2 kmh 30.04 in1017.3 mb 0.00 in0.0 mm 0.00 in0.0 mm 0.00 in0.0 mm
05:48 PM 35.4°F1.9°C 0.4°F-17.6°C 22% 2.0 mph SW3.2 kmh SW 2.0 mph3.2 kmh 30.06 in1017.9 mb 0.00 in0.0 mm 0.00 in0.0 mm 0.00 in0.0 mm
06:09 PM 34.3°F1.3°C 0.4°F-17.6°C 23% 2.0 mph SW3.2 kmh SW 4.0 mph6.4 kmh 30.08 in1018.6 mb 0.00 in0.0 mm 0.00 in0.0 mm 0.00 in0.0 mm
06:30 PM 33.3°F0.7°C 0.4°F-17.6°C 24% 2.0 mph SW3.2 kmh SW 2.0 mph3.2 kmh 30.10 in1019.3 mb 0.00 in0.0 mm 0.00 in0.0 mm 0.00 in0.0 mm
06:51 PM 33.3°F0.7°C 0.4°F-17.6°C 24% 5.0 mph SW8.0 kmh SW 8.0 mph12.9 kmh 30.11 in1019.6 mb 0.00 in0.0 mm 0.00 in0.0 mm 0.00 in0.0 mm
07:12 PM 32.7°F0.4°C -0.9°F-18.3°C 23% 2.0 mph NW3.2 kmh NW 3.0 mph4.8 kmh 30.12 in1020.0 mb 0.00 in0.0 mm 0.00 in0.0 mm 0.00 in0.0 mm
07:33 PM 32.2°F0.1°C -1.4°F-18.6°C 23% 2.0 mph NW3.2 kmh NW 5.0 mph8.0 kmh 30.13 in1020.3 mb 0.00 in0.0 mm 0.00 in0.0 mm 0.00 in0.0 mm
07:54 PM 32.0°F0.0°C -1.6°F-18.7°C 23% 3.0 mph NW4.8 kmh NW 5.0 mph8.0 kmh 30.14 in1020.7 mb 0.00 in0.0 mm 0.00 in0.0 mm 0.00 in0.0 mm
08:15 PM 31.5°F-0.3°C -0.3°F-17.9°C 25% 1.0 mph 1.6 kmh 3.0 mph4.8 kmh 30.15 in1021.0 mb 0.00 in0.0 mm 0.00 in0.0 mm 0.00 in0.0 mm
08:36 PM 31.6°F-0.2°C -1.0°F-18.3°C 24% 2.0 mph NE3.2 kmh NE 4.0 mph6.4 kmh 30.15 in1021.0 mb 0.00 in0.0 mm 0.00 in0.0 mm 0.00 in0.0 mm
08:57 PM 31.3°F-0.4°C -1.3°F-18.5°C 24% 2.0 mph NE3.2 kmh NE 4.0 mph6.4 kmh 30.16 in1021.3 mb 0.00 in0.0 mm 0.00 in0.0 mm 0.00 in0.0 mm
09:18 PM 31.6°F-0.2°C -1.0°F-18.3°C 24% 3.0 mph NE4.8 kmh NE 5.0 mph8.0 kmh 30.16 in1021.3 mb 0.00 in0.0 mm 0.00 in0.0 mm 0.00 in0.0 mm
09:39 PM 31.8°F-0.1°C -0.8°F-18.2°C 24% 5.0 mph NE8.0 kmh NE 7.0 mph11.3 kmh 30.17 in1021.7 mb 0.00 in0.0 mm 0.00 in0.0 mm 0.00 in0.0 mm
10:00 PM 31.5°F-0.3°C -1.1°F-18.4°C 24% 2.0 mph SE3.2 kmh SE 3.0 mph4.8 kmh 30.17 in1021.7 mb 0.00 in0.0 mm 0.00 in0.0 mm 0.00 in0.0 mm
10:21 PM 30.7°F-0.7°C -0.9°F-18.3°C 25% 8.0 mph S12.9 kmh S 14.0 mph22.5 kmh 30.19 in1022.4 mb 0.00 in0.0 mm 0.00 in0.0 mm 0.00 in0.0 mm
10:42 PM 29.1°F-1.6°C 0.1°F-17.7°C 28% 2.0 mph S3.2 kmh S 3.0 mph4.8 kmh 30.20 in1022.7 mb 0.00 in0.0 mm 0.00 in0.0 mm 0.00 in0.0 mm
11:03 PM 27.9°F-2.3°C -1.7°F-18.7°C 27% 2.0 mph S3.2 kmh S 4.0 mph6.4 kmh 30.23 in1023.7 mb 0.00 in0.0 mm 0.00 in0.0 mm 0.00 in0.0 mm
11:24 PM 26.8°F-2.9°C -2.7°F-19.3°C 27% 2.0 mph S3.2 kmh S 4.0 mph6.4 kmh 30.24 in1024.0 mb 0.00 in0.0 mm 0.00 in0.0 mm 0.00 in0.0 mm
11:45 PM 26.6°F-3.0°C 0.1°F-17.7°C 31% 3.0 mph S4.8 kmh S 4.0 mph6.4 kmh 30.24 in1024.0 mb 0.00 in0.0 mm 0.00 in0.0 mm 0.00 in0.0 mm